Terminal Aerodrome Forecast
Issued by NWS

Home | Current Version | Previous Version | Text Only | Print | Product List | Glossary On
Versions: 1 2 3 4 5 6 7 8 9 10 11 12 13 14 15 16 17 18 19 20 21 22 23 24 25 26 27 28
734
FTUS43 KDVN 071720
TAFCID
TAF
KCID 071720Z 0718/0818 29018G24KT P6SM SCT080 BKN120
     FM080300 29018G30KT 6SM -SHSN SCT020 OVC035
     FM080600 31022G30KT 6SM -SHSN SCT009 OVC018
     FM081500 32022G32KT 6SM -SHSN OVC015=

USA.gov is the U.S. government's official web portal to all federal, state and local government web resources and services.